Terminal Aerodrome Forecast
Issued by NWS North Platte, NE

Home | Current Version | Previous Version | Text Only | Print | Product List | Glossary On
Versions: 1 2 3 4 5 6 7 8 9 10 11 12 13
865
FTUS43 KLBF 190520
TAFVTN
TAF
KVTN 190520Z 1906/2006 20007KT P6SM SCT250
     FM191400 21010KT P6SM SKC
     FM192000 18013G22KT P6SM SKC
     FM200200 17010KT P6SM FEW250=

USA.gov is the U.S. government's official web portal to all federal, state and local government web resources and services.